PILOTS ONLINE: 576    ATC ONLINE: 91

Location

IATA YSY
City Sachs Harbour
Country  Canada
Latitude 71° 59' 38" N
Longitude 125° 14' 34" W
Elevation 282 ft
Type Medium Airport

Weather

METAR
2014/07/12 14:00
CYSY 121400Z 14020G25KT 10SM BKN120 10/06 A2980 RMK AS6 SLP099
TAF
2014/07/12 15:00
TAF CYSY 121438Z 1215/1223 14020KT P6SM BKN120 
     FM121800 14022KT P6SM SCT040 BKN080 
      TEMPO 1218/1223 P6SM -SHRA BKN040 
      RMK NXT FCST BY 121900Z

Runways

08T/26T 4000 ft / 100 ft

Outbound flights

Inbound flights


Spotted incorrect airport information? Please login with your VATSIM ID.